Hauptseite
METAR-TAF:

METAR-TAF

Flughäfen :

Flughafen Sanikiluaq

Sanikiluaq, Nunavut, Kanada

Breite: 56-32N, Länge: 079-15W, Höhe: 32 m

Beobachtung

Neuester Wetterbericht von vor 25 Stunden und 20 Minuten, um 01:00 UTC
Wind 18 kt aus Ost/Nordost
Temperatur -6°C
Luftfeuchtigkeit 79%
Luftdruck 1006 hPa
Sichtweite: 19.3 km
Geschlossene Wolkendecke in der Höhe von 5000 ft
Schneefegen

METAR: CYSK 170100Z 06018KT 12SM DRSN OVC050 M06/M09 A2971 RMK SC8 LAST OBS/NEXT 191300UTC SLP066

Zeit: 21:20 (02:20 UTC)


TAF: fehlend

Wetterbeobachtungen und Prognosen von mehr als 4000 Flughäfen (METAR und TAF Bericht).

Die verfügbaren Stationen werden durch gelbe und rote Markierungen auf der Karte dargestellt.

Führen Sie die Maus auf sie, um den Namen der Station zu sehen.

Darauf klicken, um die Beobachtung von Wetterbeobachtungen und Prognosen zu sehen.

Um die Karte zu ändern : klicken Sie auf den grünen Tasten mit einem schwarzen Kreuz Zum Vergrößern, auf den grünen Button mit einem Gedankenstrich zu verkleinern, oder auf die grünen Pfeile für benachbarte Karten.


METAR-TAF: